Time;durP1;ratioP1;P1;durP2;ratioP2;P2;SDS_P1;SDS_P2;PMS_P1;PMS_P2;Temp;Humidity;BMP_temperature;BMP_pressure;BME280_temperature;BME280_humidity;BME280_pressure;Samples;Min_cycle;Max_cycle;Signal;HPM_P1;HPM_P2
2021/07/04 00:00:32;;;;;;;1.37;1.30;;;18.80;98.00;;;;;;5091696;28;20806;-67
2021/07/04 00:03:02;;;;;;;1.30;1.20;;;18.80;98.00;;;;;;5092004;28;20954;-68
2021/07/04 00:05:32;;;;;;;1.30;1.10;;;18.80;98.00;;;;;;5091794;28;20554;-68
2021/07/04 00:08:00;;;;;;;1.50;1.10;;;18.80;98.00;;;;;;5091855;28;20513;-67
2021/07/04 00:10:32;;;;;;;3.03;1.33;;;18.70;98.00;;;;;;5091626;28;20464;-69
2021/07/04 00:13:00;;;;;;;1.50;1.20;;;18.60;98.00;;;;;;5091504;28;20483;-67
2021/07/04 00:15:34;;;;;;;1.63;1.40;;;18.60;98.00;;;;;;5091777;28;20460;-68
2021/07/04 00:18:01;;;;;;;1.60;1.40;;;18.60;98.00;;;;;;5091738;28;20543;-67
2021/07/04 00:20:28;;;;;;;1.20;1.20;;;18.70;98.00;;;;;;5091360;28;20471;-68
2021/07/04 00:22:56;;;;;;;1.93;1.40;;;18.80;98.00;;;;;;5091583;28;20506;-68
2021/07/04 00:25:26;;;;;;;3.10;1.77;;;19.00;98.00;;;;;;5091687;28;20463;-68
2021/07/04 00:27:55;;;;;;;1.50;1.30;;;18.90;98.00;;;;;;5091739;28;20797;-68
2021/07/04 00:30:25;;;;;;;3.00;1.40;;;18.70;98.00;;;;;;5091451;28;20471;-68
2021/07/04 00:32:54;;;;;;;1.50;1.27;;;18.80;98.00;;;;;;5091373;28;20487;-67
2021/07/04 00:35:23;;;;;;;1.30;1.20;;;18.90;98.00;;;;;;5091317;28;20451;-67
2021/07/04 00:37:52;;;;;;;1.50;1.13;;;18.90;98.00;;;;;;5091504;28;20514;-68
2021/07/04 00:40:20;;;;;;;1.50;1.30;;;19.00;98.00;;;;;;5091247;28;20463;-68
2021/07/04 00:42:48;;;;;;;1.73;1.30;;;19.10;98.00;;;;;;5091388;28;20462;-68
2021/07/04 00:45:18;;;;;;;2.37;1.43;;;19.20;98.00;;;;;;5091376;28;20456;-68
2021/07/04 00:47:47;;;;;;;1.77;1.33;;;19.40;98.00;;;;;;5091607;28;20528;-67
2021/07/04 00:50:16;;;;;;;1.20;1.20;;;19.20;98.00;;;;;;5091389;28;20938;-68
2021/07/04 00:52:44;;;;;;;2.33;1.10;;;19.00;98.00;;;;;;5090135;28;20518;-67
2021/07/04 00:55:13;;;;;;;2.17;1.30;;;18.80;98.00;;;;;;5091004;28;20471;-68
2021/07/04 00:57:41;;;;;;;1.60;1.37;;;18.80;98.00;;;;;;5091157;28;20873;-68
2021/07/04 01:00:11;;;;;;;1.40;1.17;;;18.70;98.00;;;;;;5091058;28;20460;-68
2021/07/04 01:02:40;;;;;;;1.83;1.50;;;18.70;98.00;;;;;;5091089;28;20544;-68
2021/07/04 01:05:10;;;;;;;1.53;1.33;;;18.70;98.00;;;;;;5090875;28;20455;-67
2021/07/04 01:07:37;;;;;;;1.50;1.30;;;18.60;98.00;;;;;;5091146;28;20464;-66
2021/07/04 01:10:06;;;;;;;2.13;1.60;;;18.50;98.00;;;;;;5091072;28;20456;-68
2021/07/04 01:12:35;;;;;;;1.70;1.50;;;18.40;98.00;;;;;;5090741;28;20492;-68
2021/07/04 01:15:04;;;;;;;2.67;1.53;;;18.30;98.00;;;;;;5091003;28;20464;-67
2021/07/04 01:17:33;;;;;;;2.47;1.53;;;18.30;98.00;;;;;;5090700;28;20464;-68
2021/07/04 01:20:02;;;;;;;2.03;1.40;;;18.30;98.00;;;;;;5090993;28;20499;-67
2021/07/04 01:22:30;;;;;;;1.50;1.33;;;18.20;98.00;;;;;;5090782;28;20456;-68
2021/07/04 01:24:59;;;;;;;1.90;1.50;;;18.30;98.00;;;;;;5090780;28;20468;-68
2021/07/04 01:27:26;;;;;;;1.50;1.40;;;18.40;98.00;;;;;;5090781;28;20602;-68
2021/07/04 01:29:53;;;;;;;1.30;1.20;;;18.30;98.00;;;;;;5090784;28;21051;-67
2021/07/04 01:32:20;;;;;;;1.30;1.03;;;18.40;98.00;;;;;;5090639;28;20529;-68
2021/07/04 01:34:48;;;;;;;2.80;1.40;;;18.40;98.00;;;;;;5090723;28;20494;-68
2021/07/04 01:37:16;;;;;;;2.40;1.87;;;18.50;98.00;;;;;;5090813;28;20510;-66
2021/07/04 01:39:44;;;;;;;1.60;1.60;;;18.50;98.00;;;;;;5090631;28;20464;-68
2021/07/04 01:42:12;;;;;;;1.90;1.40;;;18.30;98.00;;;;;;5090608;28;20455;-66
2021/07/04 01:44:40;;;;;;;1.30;1.10;;;18.20;98.00;;;;;;5090539;28;20459;-68
2021/07/04 01:47:08;;;;;;;1.40;1.40;;;18.20;98.00;;;;;;5090569;28;20949;-68
2021/07/04 01:49:35;;;;;;;1.30;1.20;;;18.20;98.00;;;;;;5090608;28;20459;-68
2021/07/04 01:52:02;;;;;;;2.07;1.23;;;18.20;98.00;;;;;;5090546;28;20742;-68
2021/07/04 01:54:29;;;;;;;1.20;1.10;;;18.30;98.00;;;;;;5090379;28;21067;-68
2021/07/04 01:56:56;;;;;;;1.93;1.20;;;18.30;98.00;;;;;;5090462;28;20500;-69
2021/07/04 01:59:24;;;;;;;1.27;1.20;;;18.40;98.00;;;;;;5090560;28;20460;-67
2021/07/04 02:01:51;;;;;;;1.37;1.30;;;18.30;98.00;;;;;;5090511;28;20459;-67
2021/07/04 02:04:18;;;;;;;1.80;1.40;;;18.20;98.00;;;;;;5091555;28;20451;-68
2021/07/04 02:06:45;;;;;;;1.40;1.20;;;18.20;98.00;;;;;;5095166;28;20501;-68
2021/07/04 02:09:12;;;;;;;1.50;1.10;;;18.20;98.00;;;;;;5094623;28;20517;-68
2021/07/04 02:11:45;;;;;;;2.63;1.90;;;18.10;98.00;;;;;;5094282;28;20455;-67
2021/07/04 02:14:12;;;;;;;1.30;1.30;;;18.00;98.00;;;;;;5094027;28;20851;-68
2021/07/04 02:16:41;;;;;;;3.77;1.50;;;18.00;98.00;;;;;;5094024;28;20456;-66
2021/07/04 02:19:08;;;;;;;1.67;1.40;;;18.00;98.00;;;;;;5093808;28;20881;-67
2021/07/04 02:21:35;;;;;;;1.60;1.20;;;18.00;98.00;;;;;;5093780;28;20521;-67
2021/07/04 02:24:02;;;;;;;1.30;1.10;;;18.00;98.00;;;;;;5093888;28;20978;-67
2021/07/04 02:26:29;;;;;;;1.30;1.20;;;18.00;98.00;;;;;;5093924;28;20898;-67
2021/07/04 02:28:56;;;;;;;4.07;1.63;;;18.00;98.00;;;;;;5093697;28;20455;-66
2021/07/04 02:31:23;;;;;;;1.20;1.20;;;17.90;98.00;;;;;;5093804;28;20463;-68
2021/07/04 02:33:51;;;;;;;1.83;1.33;;;17.90;98.00;;;;;;5093511;28;21070;-67
2021/07/04 02:36:20;;;;;;;1.97;1.50;;;18.00;98.00;;;;;;5093723;28;20460;-68
2021/07/04 02:38:48;;;;;;;1.40;1.10;;;18.00;98.00;;;;;;5093681;28;20966;-69
2021/07/04 02:41:16;;;;;;;1.63;1.30;;;18.00;98.00;;;;;;5092318;28;20483;-68
2021/07/04 02:43:43;;;;;;;1.80;1.40;;;18.10;98.00;;;;;;5093487;28;20513;-67
2021/07/04 02:46:10;;;;;;;3.00;1.40;;;18.20;98.00;;;;;;5092841;28;20459;-67
2021/07/04 02:48:38;;;;;;;2.13;1.30;;;18.20;98.00;;;;;;5093316;28;20456;-68
2021/07/04 02:51:09;;;;;;;1.57;1.37;;;18.30;98.00;;;;;;5093311;28;20466;-67
2021/07/04 02:53:36;;;;;;;1.20;1.10;;;18.40;98.00;;;;;;5093320;28;20494;-67
2021/07/04 02:56:04;;;;;;;1.70;1.20;;;18.40;98.00;;;;;;5093216;28;20472;-67
2021/07/04 02:58:32;;;;;;;1.60;1.30;;;18.30;98.00;;;;;;5093120;28;20463;-67
2021/07/04 03:00:59;;;;;;;1.20;1.20;;;18.40;98.00;;;;;;5093081;28;20455;-67
2021/07/04 03:03:26;;;;;;;1.23;1.17;;;18.30;98.00;;;;;;5093133;28;20889;-68
2021/07/04 03:05:54;;;;;;;1.43;1.27;;;18.10;98.00;;;;;;5093005;28;20512;-68
2021/07/04 03:08:22;;;;;;;2.00;1.30;;;18.00;98.00;;;;;;5093009;28;20857;-67
2021/07/04 03:10:49;;;;;;;1.20;1.20;;;18.00;98.00;;;;;;5092939;28;21018;-66
2021/07/04 03:13:16;;;;;;;1.30;1.27;;;18.20;98.00;;;;;;5092978;28;20472;-67
2021/07/04 03:15:43;;;;;;;1.70;1.40;;;18.30;98.00;;;;;;5091848;28;20463;-67
2021/07/04 03:18:10;;;;;;;1.60;1.47;;;18.30;98.00;;;;;;5092795;28;20456;-67
2021/07/04 03:20:37;;;;;;;1.60;1.43;;;18.30;98.00;;;;;;5092602;28;20524;-68
2021/07/04 03:23:05;;;;;;;1.20;1.17;;;18.30;98.00;;;;;;5092999;28;20456;-68
2021/07/04 03:25:34;;;;;;;1.63;1.33;;;18.20;98.00;;;;;;5093087;28;21007;-67
2021/07/04 03:28:01;;;;;;;2.60;1.40;;;18.10;98.00;;;;;;5093263;28;20477;-68
2021/07/04 03:30:29;;;;;;;1.20;1.10;;;18.10;98.00;;;;;;5091486;28;20544;-68
2021/07/04 03:32:56;;;;;;;1.20;1.07;;;17.90;98.00;;;;;;5092798;28;20509;-68
2021/07/04 03:35:23;;;;;;;1.40;1.30;;;17.90;98.00;;;;;;5092764;28;20549;-68
2021/07/04 03:37:50;;;;;;;1.47;1.30;;;17.80;98.00;;;;;;5093828;28;20553;-67
2021/07/04 03:40:19;;;;;;;1.53;1.40;;;17.80;98.00;;;;;;5091593;28;20466;-67
2021/07/04 03:42:49;;;;;;;1.60;1.23;;;17.60;98.00;;;;;;5093370;28;20456;-68
2021/07/04 03:45:16;;;;;;;1.97;1.30;;;17.50;98.00;;;;;;5093563;28;20509;-68
2021/07/04 03:47:44;;;;;;;1.77;1.40;;;17.60;98.00;;;;;;5092676;28;20588;-68
2021/07/04 03:50:12;;;;;;;1.60;1.40;;;17.50;98.00;;;;;;5092205;28;20538;-68
2021/07/04 03:52:41;;;;;;;1.57;1.40;;;17.50;98.00;;;;;;5092442;28;20517;-68
2021/07/04 03:55:11;;;;;;;1.20;1.10;;;17.40;98.00;;;;;;5092142;28;20872;-68
2021/07/04 03:57:38;;;;;;;1.57;1.47;;;17.50;98.00;;;;;;5092291;28;20459;-68
2021/07/04 04:00:09;;;;;;;1.70;1.30;;;17.60;98.00;;;;;;5092159;28;20455;-67
2021/07/04 04:02:36;;;;;;;2.40;1.20;;;17.50;98.00;;;;;;5090854;28;20452;-68
2021/07/04 04:05:04;;;;;;;1.60;1.30;;;17.40;98.00;;;;;;5091979;28;20460;-67
2021/07/04 04:07:31;;;;;;;2.23;1.57;;;17.30;98.00;;;;;;5090634;28;20460;-68
2021/07/04 04:09:58;;;;;;;1.83;1.53;;;17.20;98.00;;;;;;5092001;28;20517;-67
2021/07/04 04:12:25;;;;;;;1.97;1.40;;;17.20;98.00;;;;;;5091873;28;20850;-68
2021/07/04 04:14:52;;;;;;;1.70;1.30;;;17.10;98.00;;;;;;5091728;28;20616;-68
2021/07/04 04:17:21;;;;;;;1.80;1.27;;;17.20;98.00;;;;;;5091802;28;20448;-67
2021/07/04 04:19:48;;;;;;;1.20;1.13;;;17.20;98.00;;;;;;5091710;28;20521;-67
2021/07/04 04:22:15;;;;;;;2.53;1.50;;;17.30;98.00;;;;;;5091469;28;20463;-67
2021/07/04 04:24:42;;;;;;;1.30;1.27;;;17.30;98.00;;;;;;5091727;28;20464;-68
2021/07/04 04:27:09;;;;;;;1.57;1.27;;;17.50;98.00;;;;;;5091298;28;20464;-67
2021/07/04 04:29:37;;;;;;;1.40;1.27;;;17.50;98.00;;;;;;5091682;28;20463;-68
2021/07/04 04:32:06;;;;;;;1.40;1.27;;;17.50;98.00;;;;;;5091524;28;20877;-68
2021/07/04 04:34:34;;;;;;;1.30;1.20;;;17.60;98.00;;;;;;5091190;28;20494;-68
2021/07/04 04:37:02;;;;;;;1.70;1.30;;;17.60;98.00;;;;;;5091595;28;20459;-68
2021/07/04 04:39:29;;;;;;;2.43;1.63;;;17.70;98.00;;;;;;5091652;28;20827;-68
2021/07/04 04:41:56;;;;;;;1.40;1.30;;;17.80;98.00;;;;;;5092208;28;20718;-67
2021/07/04 04:44:24;;;;;;;1.30;1.10;;;17.90;98.00;;;;;;5091452;28;20517;-68
2021/07/04 04:46:51;;;;;;;1.63;1.20;;;18.20;98.00;;;;;;5091476;28;20459;-67
2021/07/04 04:49:18;;;;;;;2.93;1.57;;;18.30;98.00;;;;;;5091640;28;20517;-67
2021/07/04 04:51:46;;;;;;;1.20;1.20;;;18.40;98.00;;;;;;5091352;28;20875;-67
2021/07/04 04:54:13;;;;;;;1.43;1.20;;;18.50;98.00;;;;;;5091200;28;20480;-67
2021/07/04 04:56:40;;;;;;;1.40;1.17;;;18.60;98.00;;;;;;5091007;28;20456;-68
2021/07/04 04:59:07;;;;;;;1.60;1.20;;;18.70;98.00;;;;;;5091243;28;20456;-67
2021/07/04 05:01:34;;;;;;;2.90;1.60;;;18.90;98.00;;;;;;5091136;28;20456;-68
2021/07/04 05:04:02;;;;;;;1.60;1.37;;;18.90;98.00;;;;;;5091152;28;20860;-68
2021/07/04 05:06:33;;;;;;;2.53;1.63;;;18.90;98.00;;;;;;5090994;28;20459;-68
2021/07/04 05:09:01;;;;;;;1.43;1.30;;;18.80;98.00;;;;;;5091126;28;20464;-67
2021/07/04 05:11:28;;;;;;;1.70;1.30;;;18.80;98.00;;;;;;5091114;28;20468;-67
2021/07/04 05:13:55;;;;;;;1.53;1.43;;;19.00;98.00;;;;;;5090863;28;20489;-69
2021/07/04 05:16:22;;;;;;;2.03;1.37;;;18.90;98.00;;;;;;5090910;28;20533;-70
2021/07/04 05:18:49;;;;;;;1.90;1.67;;;18.90;98.00;;;;;;5090903;28;20452;-69
2021/07/04 05:21:16;;;;;;;1.87;1.40;;;19.10;98.00;;;;;;5090743;28;20529;-68
2021/07/04 05:23:43;;;;;;;1.60;1.33;;;19.20;98.00;;;;;;5090746;28;20456;-69
2021/07/04 05:26:12;;;;;;;2.87;1.47;;;19.30;98.00;;;;;;5090753;28;20520;-69
2021/07/04 05:28:40;;;;;;;1.20;1.10;;;19.20;98.00;;;;;;5090854;28;20529;-68
2021/07/04 05:31:08;;;;;;;1.40;1.40;;;19.20;98.00;;;;;;5090842;28;20460;-69
2021/07/04 05:33:35;;;;;;;1.93;1.60;;;19.00;98.00;;;;;;5090866;28;20478;-69
2021/07/04 05:36:02;;;;;;;2.30;1.40;;;19.00;98.00;;;;;;5090911;28;20692;-68
2021/07/04 05:38:33;;;;;;;1.30;1.20;;;19.10;98.00;;;;;;5091055;28;20471;-68
2021/07/04 05:41:00;;;;;;;1.57;1.37;;;19.20;98.00;;;;;;5094659;28;20483;-69
2021/07/04 05:43:28;;;;;;;1.50;1.40;;;19.30;98.00;;;;;;5094664;28;20517;-68
2021/07/04 05:45:58;;;;;;;1.87;1.50;;;19.40;98.00;;;;;;5094812;28;20456;-70
2021/07/04 05:48:25;;;;;;;2.33;1.60;;;19.60;98.00;;;;;;5094695;28;20460;-69
2021/07/04 05:50:52;;;;;;;1.50;1.30;;;19.70;98.00;;;;;;5094680;28;20732;-69
2021/07/04 05:53:19;;;;;;;2.07;1.40;;;19.80;98.00;;;;;;5094612;28;20467;-68
2021/07/04 05:55:46;;;;;;;1.33;1.23;;;19.70;98.00;;;;;;5094380;28;21082;-69
2021/07/04 05:58:13;;;;;;;1.67;1.57;;;19.80;98.00;;;;;;5094415;28;20536;-69
2021/07/04 06:00:42;;;;;;;1.40;1.40;;;19.90;98.00;;;;;;5094368;28;20877;-70
2021/07/04 06:03:09;;;;;;;2.10;1.33;;;19.90;98.00;;;;;;5094424;28;20459;-69
2021/07/04 06:05:37;;;;;;;1.20;1.20;;;20.00;98.00;;;;;;5094362;28;20525;-70
2021/07/04 06:08:05;;;;;;;1.67;1.30;;;20.10;98.00;;;;;;5094457;28;20877;-69
2021/07/04 06:10:32;;;;;;;1.47;1.30;;;20.20;98.00;;;;;;5094332;28;20997;-69
2021/07/04 06:12:59;;;;;;;1.20;1.10;;;20.10;98.00;;;;;;5094313;28;21011;-69
2021/07/04 06:15:27;;;;;;;2.33;1.40;;;20.10;98.00;;;;;;5093968;28;20491;-69
2021/07/04 06:17:56;;;;;;;2.20;1.80;;;20.10;98.00;;;;;;5094166;28;20460;-70
2021/07/04 06:20:23;;;;;;;1.60;1.50;;;20.20;98.00;;;;;;5093780;28;20451;-70
2021/07/04 06:22:54;;;;;;;1.87;1.80;;;20.20;98.00;;;;;;5093891;28;20505;-70
2021/07/04 06:25:22;;;;;;;1.67;1.40;;;20.10;98.00;;;;;;5093865;28;20447;-71
2021/07/04 06:27:49;;;;;;;2.90;1.67;;;20.10;98.00;;;;;;5093961;28;20452;-70
2021/07/04 06:30:17;;;;;;;1.80;1.67;;;20.10;98.00;;;;;;5093698;28;20765;-70
2021/07/04 06:32:45;;;;;;;1.63;1.50;;;20.20;98.00;;;;;;5093874;28;20866;-70
2021/07/04 06:35:25;;;;;;;2.40;1.80;;;20.40;98.00;;;;;;5093465;28;20488;-69
2021/07/04 06:37:52;;;;;;;2.23;1.50;;;20.40;98.00;;;;;;5093722;28;20954;-69
2021/07/04 06:40:19;;;;;;;1.40;1.20;;;20.30;98.00;;;;;;5093359;28;20514;-70
2021/07/04 06:42:46;;;;;;;2.23;1.47;;;20.30;98.00;;;;;;5093584;28;20537;-69
2021/07/04 06:45:13;;;;;;;1.50;1.30;;;20.30;98.00;;;;;;5092136;28;20474;-70
2021/07/04 06:47:41;;;;;;;1.63;1.30;;;20.30;98.00;;;;;;5093538;28;20460;-70
2021/07/04 06:50:10;;;;;;;1.57;1.37;;;20.20;98.00;;;;;;5093177;28;20468;-70
2021/07/04 06:52:38;;;;;;;3.10;1.70;;;20.20;98.00;;;;;;5093572;28;20815;-70
2021/07/04 06:55:07;;;;;;;1.30;1.30;;;20.20;98.00;;;;;;5093188;28;20488;-70
2021/07/04 06:57:34;;;;;;;1.50;1.40;;;20.30;98.00;;;;;;5093796;28;20936;-71
2021/07/04 07:00:04;;;;;;;1.60;1.30;;;20.30;98.00;;;;;;5093336;28;20835;-70
2021/07/04 07:02:31;;;;;;;2.23;1.53;;;20.40;98.00;;;;;;5093236;28;20460;-70
2021/07/04 07:04:58;;;;;;;1.50;1.30;;;20.40;98.00;;;;;;5090296;28;20456;-70
2021/07/04 07:07:25;;;;;;;1.90;1.30;;;20.40;98.00;;;;;;5092768;28;20501;-69
2021/07/04 07:09:54;;;;;;;1.70;1.33;;;20.60;98.00;;;;;;5092419;28;20471;-70
2021/07/04 07:12:21;;;;;;;1.67;1.40;;;20.70;98.00;;;;;;5092804;28;20799;-69
2021/07/04 07:14:48;;;;;;;2.03;1.63;;;20.80;98.00;;;;;;5092508;28;21094;-71
2021/07/04 07:17:16;;;;;;;1.30;1.20;;;20.90;98.00;;;;;;5092900;28;20878;-68
2021/07/04 07:19:44;;;;;;;1.40;1.20;;;21.10;98.00;;;;;;5092851;28;20966;-67
2021/07/04 07:22:17;;;;;;;1.30;1.27;;;21.10;98.00;;;;;;5092513;28;20525;-70
2021/07/04 07:24:44;;;;;;;1.50;1.40;;;21.20;98.00;;;;;;5092751;28;20452;-71
2021/07/04 07:27:13;;;;;;;3.73;2.00;;;21.20;98.00;;;;;;5092911;28;20464;-70
2021/07/04 07:29:40;;;;;;;1.67;1.57;;;21.40;98.00;;;;;;5092657;28;20467;-69
2021/07/04 07:32:08;;;;;;;1.53;1.50;;;21.40;98.00;;;;;;5092504;28;20467;-69
2021/07/04 07:34:35;;;;;;;2.00;1.70;;;21.60;98.00;;;;;;5091757;28;20847;-70
2021/07/04 07:37:03;;;;;;;1.73;1.57;;;21.80;98.00;;;;;;5092194;28;20456;-69
2021/07/04 07:39:30;;;;;;;1.57;1.53;;;21.90;98.00;;;;;;5092437;28;20467;-69
2021/07/04 07:41:57;;;;;;;1.70;1.50;;;21.90;98.00;;;;;;5092564;28;20463;-70
2021/07/04 07:44:25;;;;;;;2.13;1.57;;;21.80;98.00;;;;;;5092300;28;20563;-69
2021/07/04 07:46:52;;;;;;;1.70;1.40;;;21.80;98.00;;;;;;5092407;28;20472;-69
2021/07/04 07:49:19;;;;;;;2.40;1.70;;;21.60;98.00;;;;;;5092430;28;20460;-69
2021/07/04 07:51:49;;;;;;;1.50;1.30;;;21.60;98.00;;;;;;5092333;28;20456;-70
2021/07/04 07:54:20;;;;;;;1.33;1.30;;;21.70;98.00;;;;;;5092281;28;20970;-70
2021/07/04 07:56:48;;;;;;;2.77;1.60;;;21.50;98.00;;;;;;5091996;28;20483;-69
2021/07/04 07:59:17;;;;;;;2.43;1.30;;;21.40;98.00;;;;;;5092272;28;20512;-69
2021/07/04 08:01:47;;;;;;;1.30;1.30;;;21.50;98.00;;;;;;5091426;28;20460;-69
2021/07/04 08:04:14;;;;;;;1.60;1.50;;;21.60;98.00;;;;;;5092043;28;20464;-70
2021/07/04 08:06:41;;;;;;;1.90;1.40;;;21.80;98.00;;;;;;5091866;28;20495;-70
2021/07/04 08:09:09;;;;;;;2.07;1.50;;;22.00;98.00;;;;;;5091941;28;20889;-69
2021/07/04 08:11:36;;;;;;;1.83;1.40;;;22.10;98.00;;;;;;5091725;28;20452;-70
2021/07/04 08:14:03;;;;;;;1.67;1.57;;;22.40;98.00;;;;;;5092015;28;20536;-69
2021/07/04 08:16:30;;;;;;;1.60;1.40;;;22.40;98.00;;;;;;5091734;28;20560;-70
2021/07/04 08:18:58;;;;;;;1.73;1.40;;;22.40;98.00;;;;;;5091631;28;20745;-69
2021/07/04 08:21:28;;;;;;;1.30;1.10;;;22.60;98.00;;;;;;5091466;28;20521;-69
2021/07/04 08:23:55;;;;;;;1.50;1.30;;;22.30;98.00;;;;;;5091608;28;20958;-69
2021/07/04 08:26:30;;;;;;;1.40;1.30;;;22.30;98.00;;;;;;5091595;28;20533;-70
2021/07/04 08:28:57;;;;;;;1.50;1.37;;;22.20;98.00;;;;;;5091897;28;20546;-69
2021/07/04 08:31:25;;;;;;;1.30;1.20;;;22.40;98.00;;;;;;5091476;28;20464;-69
2021/07/04 08:33:52;;;;;;;1.50;1.30;;;22.60;98.00;;;;;;5091568;28;20457;-69
2021/07/04 08:36:21;;;;;;;1.40;1.30;;;22.70;98.00;;;;;;5091332;28;21074;-69
2021/07/04 08:38:48;;;;;;;1.60;1.40;;;22.80;98.00;;;;;;5091556;28;20512;-70
2021/07/04 08:41:15;;;;;;;2.27;1.60;;;22.90;98.00;;;;;;5091587;28;20456;-69
2021/07/04 08:43:43;;;;;;;4.03;1.97;;;23.00;98.00;;;;;;5091481;28;20468;-69
2021/07/04 08:46:11;;;;;;;1.60;1.30;;;23.30;98.00;;;;;;5091457;28;20464;-69
2021/07/04 08:48:40;;;;;;;1.30;1.20;;;23.40;98.00;;;;;;5091642;28;20467;-70
2021/07/04 08:51:09;;;;;;;1.50;1.40;;;23.50;98.00;;;;;;5091387;28;20468;-69
2021/07/04 08:53:38;;;;;;;2.10;1.80;;;23.60;98.00;;;;;;5091362;28;20478;-69
2021/07/04 08:56:06;;;;;;;1.57;1.47;;;23.60;98.00;;;;;;5091192;28;20495;-69
2021/07/04 08:58:35;;;;;;;2.17;1.67;;;23.60;98.00;;;;;;5091160;28;20524;-70
2021/07/04 09:01:13;;;;;;;1.63;1.57;;;23.60;98.00;;;;;;5091109;28;20513;-75
2021/07/04 09:03:44;;;;;;;1.83;1.33;;;23.70;98.00;;;;;;5090975;28;20460;-70
2021/07/04 09:06:12;;;;;;;2.00;1.40;;;23.80;98.00;;;;;;5089755;28;20795;-70
2021/07/04 09:08:41;;;;;;;1.30;1.30;;;23.80;98.00;;;;;;5089850;28;20986;-69
2021/07/04 09:11:16;;;;;;;2.83;2.17;;;23.70;98.00;;;;;;5090876;28;21067;-69
2021/07/04 09:13:45;;;;;;;2.17;1.50;;;23.60;98.00;;;;;;5091065;28;20540;-69
2021/07/04 09:16:15;;;;;;;2.83;1.50;;;23.30;98.00;;;;;;5093592;28;20492;-69
2021/07/04 09:18:43;;;;;;;1.60;1.30;;;23.20;98.00;;;;;;5094743;28;21023;-69
2021/07/04 09:21:22;;;;;;;1.77;1.37;;;23.20;98.00;;;;;;5094087;28;20480;-69
2021/07/04 09:23:51;;;;;;;1.77;1.60;;;23.20;98.00;;;;;;5093069;28;20455;-68
2021/07/04 09:26:38;;;;;;;2.33;1.50;;;23.20;98.00;;;;;;5094720;28;20505;-68
2021/07/04 09:29:06;;;;;;;1.70;1.40;;;23.20;98.00;;;;;;5094347;28;20459;-69
2021/07/04 09:31:33;;;;;;;1.60;1.30;;;23.30;98.00;;;;;;5094025;28;20517;-69
2021/07/04 09:34:05;;;;;;;1.40;1.40;;;23.30;98.00;;;;;;5094436;28;20521;-69
2021/07/04 09:36:33;;;;;;;1.30;1.20;;;23.40;98.00;;;;;;5094307;28;20483;-69
2021/07/04 09:39:02;;;;;;;1.63;1.53;;;23.40;98.00;;;;;;5094338;28;20464;-68
2021/07/04 09:41:29;;;;;;;1.43;1.23;;;23.50;98.00;;;;;;5094024;28;20977;-69
2021/07/04 09:43:56;;;;;;;1.40;1.20;;;23.60;98.00;;;;;;5094108;28;20493;-69
2021/07/04 09:46:23;;;;;;;2.03;1.53;;;23.90;97.50;;;;;;5094236;28;20517;-69
2021/07/04 09:48:51;;;;;;;2.40;2.13;;;24.10;97.40;;;;;;5092849;28;20456;-69
2021/07/04 09:51:20;;;;;;;1.43;1.40;;;24.50;96.60;;;;;;5093974;28;20537;-70
2021/07/04 09:53:49;;;;;;;1.43;1.40;;;24.50;94.60;;;;;;5094196;28;20824;-67
2021/07/04 09:56:19;;;;;;;1.40;1.20;;;24.70;93.40;;;;;;5094020;28;20483;-68
2021/07/04 09:58:49;;;;;;;1.90;1.47;;;24.80;94.40;;;;;;5094025;28;20520;-69
2021/07/04 10:01:33;;;;;;;1.40;1.40;;;25.10;93.70;;;;;;5093725;28;20459;-70
2021/07/04 10:04:01;;;;;;;1.27;1.20;;;25.20;93.50;;;;;;5094253;28;20536;-66
2021/07/04 10:06:28;;;;;;;1.93;1.43;;;25.20;94.50;;;;;;5093878;28;20995;-70
2021/07/04 10:08:57;;;;;;;1.50;1.20;;;25.20;93.30;;;;;;5093814;28;20521;-68
2021/07/04 10:11:28;;;;;;;2.13;1.60;;;25.40;95.30;;;;;;5093418;28;20455;-69
2021/07/04 10:13:55;;;;;;;1.50;1.30;;;25.50;93.40;;;;;;5093577;28;20509;-69
2021/07/04 10:16:22;;;;;;;2.40;1.67;;;25.60;92.70;;;;;;5093563;28;20487;-70
2021/07/04 10:18:49;;;;;;;1.47;1.30;;;25.70;92.70;;;;;;5092346;28;20454;-68
2021/07/04 10:21:19;;;;;;;2.67;1.77;;;25.70;91.40;;;;;;5093176;28;20494;-68
2021/07/04 10:23:48;;;;;;;1.70;1.30;;;25.70;91.10;;;;;;5093602;28;20491;-68
2021/07/04 10:26:16;;;;;;;1.40;1.20;;;25.60;92.20;;;;;;5091713;28;20455;-68
2021/07/04 10:28:46;;;;;;;2.70;1.60;;;25.60;92.60;;;;;;5093496;28;20464;-69
2021/07/04 10:31:15;;;;;;;1.20;1.10;;;25.40;92.20;;;;;;5093105;28;20463;-69
2021/07/04 10:33:43;;;;;;;1.60;1.40;;;25.40;92.00;;;;;;5093486;28;20878;-69
2021/07/04 10:36:15;;;;;;;2.23;1.67;;;25.10;92.90;;;;;;5093251;28;20483;-68
2021/07/04 10:38:54;;;;;;;1.50;1.23;;;25.00;93.50;;;;;;5093410;28;20542;-69
2021/07/04 10:41:24;;;;;;;1.30;1.10;;;24.90;93.60;;;;;;5092896;28;20455;-69
2021/07/04 10:44:09;;;;;;;1.70;1.60;;;24.80;95.80;;;;;;5093046;28;20463;-69
2021/07/04 10:47:03;;;;;;;1.30;1.30;;;24.70;94.10;;;;;;5093226;28;20886;-70
2021/07/04 10:49:39;;;;;;;1.70;1.47;;;24.70;94.80;;;;;;5092929;28;20556;-69
2021/07/04 10:52:09;;;;;;;1.60;1.40;;;24.40;92.50;;;;;;5092824;28;20448;-68
2021/07/04 10:54:59;;;;;;;1.60;1.50;;;24.40;95.00;;;;;;5092907;28;20512;-69
2021/07/04 10:57:31;;;;;;;2.27;1.50;;;24.40;95.70;;;;;;5077533;28;20993;-69
2021/07/04 11:00:18;;;;;;;1.50;1.30;;;24.50;96.30;;;;;;5092878;28;20533;-69
2021/07/04 11:02:48;;;;;;;1.60;1.50;;;24.40;94.00;;;;;;5093107;28;20495;-69
2021/07/04 11:05:17;;;;;;;1.90;1.43;;;24.40;96.00;;;;;;5092963;28;20542;-68
2021/07/04 11:08:11;;;;;;;1.80;1.50;;;24.40;95.80;;;;;;5092914;28;20483;-68
2021/07/04 11:10:51;;;;;;;1.50;1.40;;;24.40;95.50;;;;;;5092454;28;20464;-70
2021/07/04 11:13:45;;;;;;;1.70;1.60;;;24.40;95.00;;;;;;5093465;28;20455;-68
2021/07/04 11:16:24;;;;;;;2.77;1.70;;;24.20;94.80;;;;;;5093772;28;20483;-70
2021/07/04 11:19:06;;;;;;;1.63;1.53;;;24.20;96.90;;;;;;5093202;28;20459;-70
2021/07/04 11:21:54;;;;;;;1.57;1.40;;;24.30;96.40;;;;;;5093276;28;20965;-70
2021/07/04 11:24:23;;;;;;;1.63;1.50;;;24.40;97.90;;;;;;5093291;28;20452;-69
2021/07/04 11:27:23;;;;;;;1.70;1.70;;;24.50;96.80;;;;;;5092810;28;20517;-70
2021/07/04 11:30:25;;;;;;;1.70;1.40;;;24.60;96.60;;;;;;5092534;28;21035;-69
2021/07/04 11:33:29;;;;;;;2.90;1.40;;;24.80;95.20;;;;;;5089534;28;20518;-70
2021/07/04 11:36:01;;;;;;;1.70;1.20;;;25.00;95.60;;;;;;5092447;28;20532;-69
2021/07/04 11:38:30;;;;;;;2.23;1.83;;;25.00;94.50;;;;;;5091674;28;20464;-69
2021/07/04 11:40:57;;;;;;;1.50;1.40;;;24.90;96.30;;;;;;5091950;28;20452;-69
2021/07/04 11:43:26;;;;;;;1.50;1.33;;;24.90;96.40;;;;;;5092150;28;20490;-69
2021/07/04 11:45:55;;;;;;;2.13;1.73;;;24.90;97.90;;;;;;5090978;28;20539;-68
2021/07/04 11:48:24;;;;;;;1.40;1.40;;;25.00;96.70;;;;;;5090808;28;20505;-69
2021/07/04 11:50:54;;;;;;;1.50;1.40;;;25.10;98.00;;;;;;5091972;28;20456;-68
2021/07/04 11:53:21;;;;;;;1.87;1.53;;;25.20;98.00;;;;;;5091980;28;20499;-70
2021/07/04 11:56:03;;;;;;;1.53;1.50;;;25.40;97.60;;;;;;5091979;28;20958;-69
2021/07/04 11:58:32;;;;;;;1.43;1.33;;;25.40;95.40;;;;;;5091751;28;20449;-69
2021/07/04 12:00:59;;;;;;;1.30;1.20;;;25.30;94.60;;;;;;5091466;28;20476;-70
2021/07/04 12:03:27;;;;;;;1.40;1.30;;;25.30;94.30;;;;;;5091665;28;20698;-70
2021/07/04 12:06:07;;;;;;;2.23;1.40;;;25.30;95.00;;;;;;5091604;28;20879;-70
2021/07/04 12:08:56;;;;;;;1.67;1.50;;;25.30;95.60;;;;;;5091607;28;20522;-69
2021/07/04 12:11:47;;;;;;;2.27;1.30;;;25.40;94.00;;;;;;5091556;28;20517;-69
2021/07/04 12:14:31;;;;;;;1.63;1.37;;;25.50;95.60;;;;;;5091354;28;20464;-69
2021/07/04 12:17:14;;;;;;;1.80;1.50;;;25.60;96.30;;;;;;5091603;28;20487;-69
2021/07/04 12:19:42;;;;;;;1.63;1.60;;;25.70;94.90;;;;;;5091589;28;20496;-69
2021/07/04 12:22:13;;;;;;;1.40;1.40;;;25.70;96.20;;;;;;5090271;28;20466;-68
2021/07/04 12:24:41;;;;;;;1.90;1.80;;;25.80;93.20;;;;;;5091858;28;20495;-69
2021/07/04 12:27:11;;;;;;;2.07;1.50;;;25.60;91.40;;;;;;5091445;28;20954;-68
2021/07/04 12:30:02;;;;;;;1.80;1.33;;;25.50;92.40;;;;;;5091884;28;20452;-70
2021/07/04 12:32:31;;;;;;;1.77;1.40;;;25.40;95.80;;;;;;5091478;28;21073;-69
2021/07/04 12:34:58;;;;;;;2.43;1.80;;;25.20;92.20;;;;;;5091446;28;20487;-68
2021/07/04 12:37:28;;;;;;;2.30;1.60;;;25.10;92.60;;;;;;5091667;28;20560;-70
2021/07/04 12:40:10;;;;;;;1.73;1.60;;;25.00;93.20;;;;;;5091318;28;20460;-68
2021/07/04 12:42:38;;;;;;;1.50;1.50;;;25.00;93.70;;;;;;5090470;28;20913;-69
2021/07/04 12:45:08;;;;;;;1.93;1.53;;;24.90;92.90;;;;;;5090384;28;20517;-69
2021/07/04 12:47:35;;;;;;;1.63;1.50;;;24.80;94.50;;;;;;5091500;28;20494;-68
2021/07/04 12:50:09;;;;;;;1.30;1.27;;;24.90;96.40;;;;;;5090160;28;20472;-68
2021/07/04 12:52:38;;;;;;;2.03;1.50;;;24.90;95.90;;;;;;5091472;28;20451;-68
2021/07/04 12:55:06;;;;;;;2.23;1.67;;;24.90;94.80;;;;;;5091398;28;20493;-68
2021/07/04 12:57:35;;;;;;;1.40;1.30;;;25.00;94.60;;;;;;5091261;28;20483;-68
2021/07/04 13:00:16;;;;;;;1.53;1.37;;;25.00;96.10;;;;;;5089948;28;20460;-69